createdAt,value
2022-12-01T00:01:17.265Z,52.23
2022-12-01T00:03:44.987Z,50.57
2022-12-01T00:06:15.523Z,52.27
2022-12-01T00:09:05.484Z,51.90
2022-12-01T00:11:34.302Z,48.97
2022-12-01T00:14:02.142Z,51.50
2022-12-01T00:16:30.372Z,52.67
2022-12-01T00:18:58.638Z,49.47
2022-12-01T00:21:27.510Z,52.27
2022-12-01T00:23:57.387Z,49.90
2022-12-01T00:26:25.522Z,49.57
2022-12-01T00:28:55.779Z,48.77
2022-12-01T00:31:23.736Z,50.60
2022-12-01T00:33:51.540Z,52.40
2022-12-01T00:36:19.286Z,53.70
2022-12-01T00:38:47.283Z,49.90
2022-12-01T00:41:15.031Z,51.07
2022-12-01T00:43:42.605Z,51.70
2022-12-01T00:46:11.598Z,51.70
2022-12-01T00:48:39.238Z,51.80
2022-12-01T00:51:07.150Z,50.93
2022-12-01T00:53:34.769Z,50.33
2022-12-01T00:56:02.394Z,48.00
2022-12-01T00:58:29.979Z,51.07
2022-12-01T01:00:58.880Z,50.47
2022-12-01T01:03:28.320Z,51.60
2022-12-01T01:05:56.017Z,50.43
2022-12-01T01:08:23.733Z,50.07
2022-12-01T01:10:51.299Z,50.47
2022-12-01T01:13:19.048Z,52.20
2022-12-01T01:15:46.645Z,50.73
2022-12-01T01:18:14.312Z,51.50
2022-12-01T01:20:43.198Z,54.37
2022-12-01T01:23:10.749Z,52.40
2022-12-01T01:25:38.366Z,49.73
2022-12-01T01:28:05.980Z,52.17
2022-12-01T01:30:33.828Z,51.47
2022-12-01T01:33:01.695Z,52.03
2022-12-01T01:35:29.451Z,53.40
2022-12-01T01:37:58.391Z,47.70
2022-12-01T01:40:25.982Z,53.13
2022-12-01T01:42:53.545Z,50.80
2022-12-01T01:45:22.827Z,48.13
2022-12-01T01:47:51.213Z,51.23
2022-12-01T01:50:21.665Z,49.73
2022-12-01T01:52:53.029Z,49.70
2022-12-01T01:55:22.141Z,49.90
2022-12-01T01:57:49.824Z,50.20
2022-12-01T02:00:20.304Z,54.83
2022-12-01T02:02:49.441Z,52.23
2022-12-01T02:05:19.453Z,51.90
2022-12-01T02:07:47.710Z,52.40
2022-12-01T02:10:22.236Z,50.40
2022-12-01T02:13:14.907Z,52.80
2022-12-01T02:15:45.986Z,51.93
2022-12-01T02:18:22.769Z,53.13
2022-12-01T02:21:25.575Z,49.40
2022-12-01T02:24:31.600Z,49.07
2022-12-01T02:27:03.768Z,51.47
2022-12-01T02:29:48.975Z,51.43
2022-12-01T02:32:22.205Z,50.20
2022-12-01T02:34:56.066Z,50.53
2022-12-01T02:37:28.986Z,50.23
2022-12-01T02:39:59.913Z,51.00
2022-12-01T02:42:50.529Z,52.77
2022-12-01T02:45:23.345Z,49.50
2022-12-01T02:47:54.298Z,53.17
2022-12-01T02:50:23.567Z,50.87
2022-12-01T02:52:51.388Z,53.43
2022-12-01T02:55:18.957Z,52.20
2022-12-01T02:57:46.643Z,51.73
2022-12-01T03:00:15.605Z,50.87
2022-12-01T03:02:51.711Z,52.93
2022-12-01T03:05:27.321Z,55.50
2022-12-01T03:08:02.073Z,52.67
2022-12-01T03:10:35.752Z,52.90
2022-12-01T03:13:11.377Z,51.23
2022-12-01T03:15:43.293Z,54.10
2022-12-01T03:18:20.529Z,49.43
2022-12-01T03:20:54.167Z,50.73
2022-12-01T03:23:24.267Z,54.70
2022-12-01T03:25:53.494Z,53.83
2022-12-01T03:28:23.753Z,53.33
2022-12-01T03:30:53.729Z,52.50
2022-12-01T03:33:26.408Z,53.83
2022-12-01T03:35:58.898Z,54.60
2022-12-01T03:38:27.457Z,54.20
2022-12-01T03:40:58.306Z,53.13
2022-12-01T03:43:28.914Z,53.30
2022-12-01T03:46:00.672Z,52.87
2022-12-01T03:48:28.855Z,54.27
2022-12-01T03:51:04.216Z,51.63
2022-12-01T03:53:35.372Z,54.70
2022-12-01T03:56:04.663Z,55.20
2022-12-01T03:58:35.447Z,52.37
2022-12-01T04:01:03.464Z,53.90
2022-12-01T04:03:31.007Z,53.27
2022-12-01T04:06:00.163Z,55.10
2022-12-01T04:08:27.804Z,51.47
2022-12-01T04:10:55.781Z,53.87
2022-12-01T04:13:23.267Z,58.53
2022-12-01T04:15:51.460Z,52.23
2022-12-01T04:18:19.624Z,55.20
2022-12-01T04:20:47.265Z,54.07
2022-12-01T04:23:36.693Z,54.80
2022-12-01T04:26:06.710Z,55.17
2022-12-01T04:28:36.515Z,52.47
2022-12-01T04:31:04.150Z,54.10
2022-12-01T05:04:19.528Z,50.53
2022-12-01T05:12:47.310Z,48.70
2022-12-01T05:50:03.766Z,49.23
2022-12-01T05:58:31.840Z,52.00
2022-12-01T06:06:29.615Z,50.53
2022-12-01T06:19:24.477Z,50.13
2022-12-01T06:26:13.078Z,52.07
2022-12-01T06:30:51.577Z,47.50
2022-12-01T06:37:55.279Z,51.57
2022-12-01T06:40:23.271Z,50.97
2022-12-01T06:42:53.096Z,50.27
2022-12-01T06:45:26.294Z,51.43
2022-12-01T06:47:55.250Z,48.83
2022-12-01T06:50:26.308Z,50.07
2022-12-01T06:53:02.802Z,49.37
2022-12-01T06:55:39.007Z,50.47
2022-12-01T06:58:07.479Z,50.37
2022-12-01T07:00:38.188Z,53.07
2022-12-01T07:05:58.681Z,50.40
2022-12-01T07:08:34.516Z,51.83
2022-12-01T07:11:04.291Z,48.80
2022-12-01T07:13:34.685Z,51.50
2022-12-01T07:16:06.412Z,49.70
2022-12-01T07:18:47.799Z,48.33
2022-12-01T07:21:27.741Z,50.10
2022-12-01T07:24:01.542Z,52.03
2022-12-01T07:26:39.771Z,48.60
2022-12-01T07:29:08.010Z,49.80
2022-12-01T07:31:38.396Z,52.20
2022-12-01T07:34:07.168Z,50.20
2022-12-01T07:36:47.385Z,52.27
2022-12-01T07:39:22.493Z,52.23
2022-12-01T07:41:52.044Z,49.17
2022-12-01T07:44:21.479Z,47.13
2022-12-01T07:46:53.481Z,44.80
2022-12-01T07:49:23.601Z,46.27
2022-12-01T07:51:56.889Z,48.73
2022-12-01T07:54:27.795Z,49.23
2022-12-01T07:57:03.571Z,46.40
2022-12-01T07:59:34.473Z,45.53
2022-12-01T08:02:06.735Z,44.63
2022-12-01T08:04:39.676Z,47.10
2022-12-01T08:07:08.011Z,47.30
2022-12-01T08:09:51.427Z,47.07
2022-12-01T08:12:36.266Z,49.63
2022-12-01T08:15:17.425Z,45.50
2022-12-01T08:17:50.401Z,43.60
2022-12-01T08:20:31.667Z,44.23
2022-12-01T08:23:08.100Z,44.77
2022-12-01T08:25:40.416Z,43.97
2022-12-01T08:28:13.498Z,44.70
2022-12-01T08:30:59.626Z,42.97
2022-12-01T08:33:47.196Z,45.43
2022-12-01T08:36:17.277Z,45.17
2022-12-01T08:38:55.914Z,41.60
2022-12-01T08:41:45.223Z,43.80
2022-12-01T08:44:17.267Z,38.70
2022-12-01T08:46:45.634Z,42.27
2022-12-01T08:49:15.839Z,45.00
2022-12-01T08:52:02.652Z,46.20
2022-12-01T08:54:30.658Z,38.97
2022-12-01T08:56:59.851Z,39.27
2022-12-01T08:59:27.729Z,42.20
2022-12-01T09:01:57.378Z,41.70
2022-12-01T09:04:27.075Z,40.70
2022-12-01T09:06:56.515Z,43.03
2022-12-01T09:09:26.401Z,42.00
2022-12-01T09:11:54.883Z,42.87
2022-12-01T09:14:24.567Z,41.70
2022-12-01T09:16:52.858Z,41.80
2022-12-01T09:19:25.059Z,41.40
2022-12-01T09:21:53.325Z,43.00
2022-12-01T09:24:23.232Z,43.83
2022-12-01T09:27:08.065Z,44.67
2022-12-01T09:29:40.424Z,43.67
2022-12-01T09:32:33.178Z,40.40
2022-12-01T09:35:02.505Z,40.10
2022-12-01T09:37:34.542Z,41.83
2022-12-01T09:40:19.394Z,38.27
2022-12-01T09:43:23.298Z,39.50
2022-12-01T09:45:57.141Z,42.97
2022-12-01T09:48:32.172Z,39.50
2022-12-01T09:52:15.109Z,40.73
2022-12-01T09:55:34.339Z,39.73
2022-12-01T09:58:22.242Z,38.33
2022-12-01T10:00:51.917Z,40.67
2022-12-01T10:03:41.252Z,38.60
2022-12-01T10:06:27.125Z,40.60
2022-12-01T10:13:23.593Z,37.57
2022-12-01T10:15:56.188Z,39.40
2022-12-01T10:18:36.480Z,40.60
2022-12-01T10:21:10.375Z,41.20
2022-12-01T10:23:52.985Z,41.37
2022-12-01T10:26:26.623Z,40.77
2022-12-01T10:29:01.537Z,40.43
2022-12-01T10:31:34.706Z,42.33
2022-12-01T10:34:06.254Z,36.60
2022-12-01T10:36:34.780Z,36.87
2022-12-01T10:39:03.266Z,33.10
2022-12-01T10:41:32.580Z,33.90
2022-12-01T10:44:01.603Z,30.00
2022-12-01T10:46:35.490Z,32.80
2022-12-01T10:49:10.986Z,28.30
2022-12-01T10:51:55.824Z,26.83
2022-12-01T10:54:25.487Z,27.20
2022-12-01T10:56:56.861Z,27.27
2022-12-01T10:59:28.378Z,27.47
2022-12-01T11:01:57.018Z,26.63
2022-12-01T11:04:46.261Z,27.80
2022-12-01T11:07:20.071Z,26.30
2022-12-01T11:09:56.478Z,25.00
2022-12-01T11:12:24.708Z,27.67
2022-12-01T11:14:54.231Z,28.13
2022-12-01T11:17:29.270Z,28.27
2022-12-01T11:19:58.900Z,27.67
2022-12-01T11:22:28.476Z,30.43
2022-12-01T11:25:01.621Z,27.20
2022-12-01T11:27:31.953Z,27.67
2022-12-01T11:30:04.842Z,32.40
2022-12-01T11:32:34.485Z,28.20
2022-12-01T11:35:05.797Z,29.30
2022-12-01T11:37:38.176Z,29.40
2022-12-01T11:40:10.011Z,32.80
2022-12-01T11:42:38.253Z,30.63
2022-12-01T11:45:09.985Z,28.67
2022-12-01T11:48:01.640Z,28.73
2022-12-01T11:50:32.894Z,31.47
2022-12-01T11:53:01.076Z,30.23
2022-12-01T11:55:29.930Z,27.80
2022-12-01T11:58:00.642Z,27.40
2022-12-01T12:00:30.309Z,28.80
2022-12-01T12:03:17.410Z,28.97
2022-12-01T12:09:06.061Z,24.50
2022-12-01T12:11:41.188Z,27.83
2022-12-01T12:14:26.579Z,24.97
2022-12-01T12:17:07.708Z,27.10
2022-12-01T12:20:08.229Z,30.93
2022-12-01T12:22:47.642Z,26.17
2022-12-01T12:25:25.360Z,27.73
2022-12-01T12:28:05.071Z,26.33
2022-12-01T12:30:35.608Z,26.73
2022-12-01T12:33:26.042Z,25.40
2022-12-01T12:36:00.645Z,29.47
2022-12-01T12:38:40.006Z,26.90
2022-12-01T12:41:17.744Z,25.37
2022-12-01T12:43:54.377Z,25.80
2022-12-01T12:46:27.779Z,28.20
2022-12-01T12:49:19.814Z,23.03
2022-12-01T12:51:50.555Z,26.87
2022-12-01T12:54:24.179Z,26.47
2022-12-01T12:56:56.578Z,28.60
2022-12-01T12:59:29.231Z,27.80
2022-12-01T13:02:02.530Z,24.90
2022-12-01T13:04:36.679Z,23.97
2022-12-01T13:07:07.486Z,22.60
2022-12-01T13:09:39.476Z,22.13
2022-12-01T13:12:15.556Z,22.03
2022-12-01T13:14:46.327Z,23.50
2022-12-01T13:17:18.342Z,21.30
2022-12-01T13:19:47.799Z,23.47
2022-12-01T13:22:17.739Z,22.00
2022-12-01T13:24:46.684Z,21.07
2022-12-01T13:27:18.381Z,22.27
2022-12-01T13:29:48.231Z,20.50
2022-12-01T13:32:30.045Z,20.03
2022-12-01T13:34:57.858Z,20.43
2022-12-01T13:37:29.817Z,19.47
2022-12-01T13:40:09.063Z,18.43
2022-12-01T13:42:37.261Z,18.73
2022-12-01T13:45:10.049Z,19.37
2022-12-01T13:47:50.711Z,18.37
2022-12-01T13:51:04.194Z,17.53
2022-12-01T13:53:33.981Z,18.80
2022-12-01T13:56:21.929Z,19.20
2022-12-01T13:58:50.655Z,17.00
2022-12-01T14:01:44.339Z,19.00
2022-12-01T14:04:29.124Z,19.70
2022-12-01T14:07:28.038Z,18.77
2022-12-01T14:10:00.144Z,19.70
2022-12-01T14:12:34.455Z,18.60
2022-12-01T14:15:05.614Z,18.27
2022-12-01T14:17:35.343Z,17.97
2022-12-01T14:20:09.113Z,18.17
2022-12-01T14:22:39.901Z,16.47
2022-12-01T14:25:23.775Z,17.60
2022-12-01T14:27:55.424Z,18.03
2022-12-01T14:31:00.978Z,13.87
2022-12-01T14:33:59.789Z,17.40
2022-12-01T14:36:35.913Z,16.50
2022-12-01T14:39:07.600Z,17.80
2022-12-01T14:41:42.429Z,18.53
2022-12-01T14:44:16.605Z,16.30
2022-12-01T14:46:47.114Z,18.90
2022-12-01T14:49:18.767Z,17.93
2022-12-01T14:51:48.544Z,17.87
2022-12-01T14:54:21.172Z,19.27
2022-12-01T14:56:54.080Z,17.70
2022-12-01T14:59:26.224Z,18.43
2022-12-01T15:01:57.386Z,17.53
2022-12-01T15:04:25.381Z,16.20
2022-12-01T15:06:57.198Z,19.53
2022-12-01T15:09:35.118Z,18.70
2022-12-01T15:12:07.391Z,17.40
2022-12-01T15:14:38.751Z,17.33
2022-12-01T15:17:08.902Z,18.70
2022-12-01T15:19:39.046Z,18.23
2022-12-01T15:22:11.601Z,18.50
2022-12-01T15:24:39.293Z,21.87
2022-12-01T15:27:24.876Z,18.63
2022-12-01T15:29:54.423Z,18.40
2022-12-01T15:32:23.261Z,18.63
2022-12-01T15:34:54.205Z,19.53
2022-12-01T15:37:23.213Z,17.87
2022-12-01T15:39:52.650Z,16.80
2022-12-01T15:42:24.195Z,17.60
2022-12-01T15:45:00.799Z,17.77
2022-12-01T15:47:35.760Z,18.70
2022-12-01T15:50:05.608Z,13.70
2022-12-01T15:52:33.955Z,14.87
2022-12-01T15:55:05.700Z,16.27
2022-12-01T15:57:33.499Z,17.17
2022-12-01T16:00:02.914Z,16.60
2022-12-01T16:02:40.829Z,17.93
2022-12-01T16:05:17.568Z,16.80
2022-12-01T16:08:12.510Z,16.63
2022-12-01T16:10:37.587Z,17.10
2022-12-01T16:13:36.842Z,18.23
2022-12-01T16:16:31.164Z,19.27
2022-12-01T16:19:00.595Z,20.83
2022-12-01T16:21:28.628Z,20.10
2022-12-01T16:24:01.337Z,20.50
2022-12-01T16:26:29.449Z,21.27
2022-12-01T16:28:57.620Z,20.50
2022-12-01T16:31:26.789Z,21.67
2022-12-01T16:34:13.775Z,21.33
2022-12-01T16:36:46.951Z,23.80
2022-12-01T16:39:15.194Z,25.47
2022-12-01T16:41:44.819Z,24.23
2022-12-01T16:44:27.955Z,24.87
2022-12-01T16:46:56.623Z,25.73
2022-12-01T16:49:25.820Z,24.03
2022-12-01T16:51:56.325Z,27.63
2022-12-01T16:54:25.357Z,25.70
2022-12-01T16:56:53.247Z,25.97
2022-12-01T16:59:21.466Z,29.33
2022-12-01T17:01:49.149Z,27.63
2022-12-01T17:04:16.905Z,24.67
2022-12-01T17:06:46.091Z,26.43
2022-12-01T17:09:13.837Z,25.70
2022-12-01T17:11:41.502Z,27.57
2022-12-01T17:14:09.144Z,26.90
2022-12-01T17:16:37.051Z,26.47
2022-12-01T17:19:05.416Z,26.73
2022-12-01T17:21:33.222Z,23.67
2022-12-01T17:24:02.261Z,27.93
2022-12-01T17:26:29.955Z,26.93
2022-12-01T17:28:57.638Z,26.97
2022-12-01T17:31:25.358Z,26.43
2022-12-01T17:33:53.040Z,26.73
2022-12-01T17:36:20.832Z,26.10
2022-12-01T17:38:49.732Z,25.60
2022-12-01T17:41:21.735Z,23.40
2022-12-01T17:43:49.436Z,22.10
2022-12-01T17:46:17.223Z,25.70
2022-12-01T17:48:47.206Z,27.00
2022-12-01T17:51:15.863Z,24.80
2022-12-01T17:53:43.724Z,25.70
2022-12-01T17:56:13.073Z,25.93
2022-12-01T17:58:42.527Z,24.73
2022-12-01T18:01:14.894Z,26.30
2022-12-01T18:03:42.833Z,21.17
2022-12-01T18:06:11.763Z,26.43
2022-12-01T18:08:39.926Z,27.37
2022-12-01T18:11:14.356Z,23.80
2022-12-01T18:13:45.002Z,25.70
2022-12-01T18:16:14.552Z,25.90
2022-12-01T18:18:42.452Z,24.20
2022-12-01T18:21:11.695Z,22.90
2022-12-01T18:23:40.026Z,24.23
2022-12-01T18:26:15.212Z,22.33
2022-12-01T18:28:45.391Z,21.47
2022-12-01T18:31:14.632Z,23.63
2022-12-01T18:33:44.870Z,24.37
2022-12-01T18:36:15.751Z,25.03
2022-12-01T18:38:46.768Z,26.37
2022-12-01T18:41:15.218Z,25.37
2022-12-01T18:43:42.844Z,25.47
2022-12-01T18:46:13.091Z,29.00
2022-12-01T18:48:45.590Z,27.37
2022-12-01T18:51:13.979Z,25.33
2022-12-01T18:53:42.140Z,25.20
2022-12-01T18:56:12.011Z,25.70
2022-12-01T18:58:40.749Z,24.13
2022-12-01T19:01:20.144Z,24.17
2022-12-01T19:03:47.940Z,24.23
2022-12-01T19:06:15.677Z,25.47
2022-12-01T19:08:43.435Z,24.43
2022-12-01T19:11:11.184Z,25.90
2022-12-01T19:13:38.901Z,24.90
2022-12-01T19:16:07.901Z,24.47
2022-12-01T19:18:37.254Z,23.60
2022-12-01T19:21:05.997Z,23.50
2022-12-01T19:23:34.263Z,25.40
2022-12-01T19:26:04.953Z,24.00
2022-12-01T19:28:33.370Z,21.93
2022-12-01T19:31:01.326Z,23.97
2022-12-01T19:33:29.315Z,23.53
2022-12-01T19:35:58.772Z,22.40
2022-12-01T19:38:26.552Z,24.83
2022-12-01T19:40:54.296Z,24.27
2022-12-01T19:43:22.025Z,24.27
2022-12-01T19:45:49.711Z,23.33
2022-12-01T19:48:17.561Z,23.97
2022-12-01T19:50:45.294Z,26.43
2022-12-01T19:53:14.295Z,25.20
2022-12-01T19:55:41.966Z,24.77
2022-12-01T19:58:09.581Z,22.87
2022-12-01T20:00:37.269Z,24.37
2022-12-01T20:03:05.445Z,22.57
2022-12-01T20:05:33.087Z,25.43
2022-12-01T20:08:02.332Z,25.17
2022-12-01T20:10:31.310Z,26.47
2022-12-01T20:12:59.013Z,25.87
2022-12-01T20:15:26.629Z,28.10
2022-12-01T20:17:54.276Z,25.90
2022-12-01T20:20:21.905Z,24.30
2022-12-01T20:22:49.665Z,27.17
2022-12-01T20:25:17.982Z,28.07
2022-12-01T20:27:46.909Z,27.43
2022-12-01T20:30:15.901Z,26.83
2022-12-01T20:32:43.516Z,27.80
2022-12-01T20:35:12.322Z,27.10
2022-12-01T20:37:39.990Z,25.80
2022-12-01T20:40:08.827Z,27.67
2022-12-01T20:42:39.532Z,27.80
2022-12-01T20:45:08.878Z,29.50
2022-12-01T20:47:36.836Z,28.60
2022-12-01T20:50:05.382Z,27.60
2022-12-01T20:52:33.022Z,30.03
2022-12-01T20:55:00.615Z,26.90
2022-12-01T20:57:28.536Z,25.57
2022-12-01T20:59:56.157Z,26.57
2022-12-01T21:02:25.120Z,26.50
2022-12-01T21:04:56.353Z,23.00
2022-12-01T21:07:26.526Z,25.77
2022-12-01T21:09:54.168Z,24.87
2022-12-01T21:12:39.377Z,26.47
2022-12-01T21:15:14.358Z,26.87
2022-12-01T21:17:46.736Z,29.03
2022-12-01T21:20:21.652Z,26.50
2022-12-01T21:22:50.667Z,27.00
2022-12-01T21:25:20.747Z,28.33
2022-12-01T21:27:49.121Z,31.43
2022-12-01T21:30:18.850Z,27.30
2022-12-01T21:32:48.886Z,26.47
2022-12-01T21:35:19.478Z,29.37
2022-12-01T21:37:47.686Z,28.73
2022-12-01T21:40:17.741Z,30.57
2022-12-01T21:42:45.683Z,27.87
2022-12-01T21:45:22.972Z,29.23
2022-12-01T21:47:51.985Z,28.90
2022-12-01T21:50:23.333Z,27.53
2022-12-01T21:52:51.410Z,26.40
2022-12-01T21:55:34.867Z,26.70
2022-12-01T21:58:02.827Z,26.97
2022-12-01T22:00:32.245Z,28.10
2022-12-01T22:03:16.912Z,25.63
2022-12-01T22:06:01.145Z,23.80
2022-12-01T22:08:35.925Z,23.23
2022-12-01T22:11:05.581Z,23.37
2022-12-01T22:13:42.306Z,22.80
2022-12-01T22:16:18.110Z,24.83
2022-12-01T22:18:50.341Z,23.73
2022-12-01T22:21:32.400Z,25.00
2022-12-01T22:24:19.123Z,24.00
2022-12-01T22:26:49.360Z,25.60
2022-12-01T22:29:28.712Z,23.97
2022-12-01T22:32:29.170Z,25.03
2022-12-01T22:35:00.105Z,22.53
2022-12-01T22:37:34.958Z,25.60
2022-12-01T22:40:02.828Z,24.70
2022-12-01T22:42:32.937Z,23.10
2022-12-01T22:45:01.823Z,26.40
2022-12-01T22:47:32.792Z,25.87
2022-12-01T22:50:01.714Z,27.70
2022-12-01T22:52:30.767Z,27.13
2022-12-01T22:54:58.333Z,22.77
2022-12-01T22:57:31.079Z,25.57
2022-12-01T22:59:59.033Z,26.13
2022-12-01T23:02:31.726Z,24.80
2022-12-01T23:05:02.749Z,25.70
2022-12-01T23:07:33.237Z,25.50
2022-12-01T23:10:08.439Z,21.83
2022-12-01T23:12:36.993Z,23.63
2022-12-01T23:15:23.583Z,21.97
2022-12-01T23:17:51.416Z,22.40
2022-12-01T23:20:27.834Z,21.20
2022-12-01T23:22:56.417Z,20.97
2022-12-01T23:25:25.046Z,18.17
2022-12-01T23:27:54.001Z,19.77
2022-12-01T23:30:22.967Z,22.67
2022-12-01T23:32:58.572Z,22.70
2022-12-01T23:35:27.632Z,22.40
2022-12-01T23:37:55.321Z,21.93
2022-12-01T23:40:29.154Z,22.93
2022-12-01T23:42:59.546Z,21.40
2022-12-01T23:45:28.391Z,22.60
2022-12-01T23:47:56.682Z,23.37
2022-12-01T23:50:27.476Z,25.27
2022-12-01T23:52:55.068Z,26.40
2022-12-01T23:55:24.382Z,24.80
2022-12-01T23:57:52.526Z,24.90
